Elgin, SC (29045)

6:52 AM EST on December 05, 2016 (GMT -0500)
Tall Pines Weather | | Change Station

Elev 281 ft 34.15 °N, 80.76 °W | Updated 2 minutes ago

Rain
Rain
44.1 °F
Feels Like 44 °F
N
2.0
Wind Variable Wind from ESE
Gusts 2.0 mph

Today
High -- | Low -- °F
--% Chance of Precip.
Yesterday
High -- | Low -- °F
Precip. -- in
Pressure 29.98 in
Visibility 10.0 miles
Clouds Scattered Clouds 800 ft
Mostly Cloudy 1400 ft
Overcast 7000 ft
Windchill 44 °F
Dew Point 43 °F
Humidity 97%
Rainfall 0.64 in
Snow Depth Not available.
7:14 AM 5:13 PM
Waxing Crescent, 31% visible
SPECI KMMT 051128Z 07003KT 10SM SCT008 BKN014 OVC070 07/07 A2998 RMK AO2A $
Pressure 29.98 in
Visibility 10.0 miles
Clouds Scattered Clouds 800 ft
Mostly Cloudy 1400 ft
Overcast 7000 ft
Windchill 44 °F
Dew Point 43 °F
Humidity 97%
Rainfall 0.64 in
Snow Depth Not available.
7:14 AM 5:13 PM
Waxing Crescent, 31% visible
SPECI KMMT 051128Z 07003KT 10SM SCT008 BKN014 OVC070 07/07 A2998 RMK AO2A $

10-Day Weather Forecast

Almanac

Astronomy

Dec. 05, 2016 Rise Set
Actual Time
Civil Twilight
Nautical Twilight
Astronomical Twilight
Moon
Length of Visible Light
Length of Day
Tomorrow will be .
, % of the Moon is Illuminated

Today's Extremes

State Highs State Lows

Community

WunderPhotos

Upload Photos

1,955,777 photos uploaded!

WunderBlog® & News

Nearby

Air Quality

  Air Quality AQ Index Pollutant
Not available.

Snow Depth

Station Depth Elevation

Earthquake Activity

City Distance Mag. Time & Date
Minimum magnitude displayed is 2.5.

Coastal Water Temperatures

Place Temperature

Stations

Nearby Weather Stations

Station Location Temp. Windchill Dew Point Humidity Wind Precip. Elev Updated Type
                   

Watches & Warnings

There are currently no watches in effect.